Time;durP1;ratioP1;P1;durP2;ratioP2;P2;SDS_P1;SDS_P2;PMS_P1;PMS_P2;Temp;Humidity;BMP_temperature;BMP_pressure;BME280_temperature;BME280_humidity;BME280_pressure;Samples;Min_cycle;Max_cycle;Signal;HPM_P1;HPM_P2
2021/12/16 00:09:28;;;;;;;19.73;11.43;;;7.20;99.90;;;;;;5095014;28;20087;-73
2021/12/16 00:33:33;;;;;;;20.58;12.10;;;7.00;99.90;;;;;;5094667;28;20047;-73
2021/12/16 00:36:00;;;;;;;23.90;12.38;;;7.10;99.90;;;;;;5074205;28;20111;-74
2021/12/16 00:38:26;;;;;;;21.25;12.75;;;7.10;99.90;;;;;;5074052;28;20041;-73
2021/12/16 00:40:52;;;;;;;23.98;12.10;;;7.00;99.90;;;;;;5074288;28;20043;-74
2021/12/16 00:43:24;;;;;;;23.48;12.52;;;7.00;99.90;;;;;;5074435;28;20449;-74
2021/12/16 00:54:31;;;;;;;26.20;12.50;;;6.90;99.90;;;;;;5093258;28;20055;-74
2021/12/16 00:56:58;;;;;;;21.20;12.85;;;6.90;99.90;;;;;;5091486;28;20062;-74
2021/12/16 00:59:28;;;;;;;18.40;12.43;;;6.90;99.90;;;;;;5092857;28;20377;-73
2021/12/16 01:02:12;;;;;;;22.60;13.00;;;6.90;99.90;;;;;;5094075;28;20039;-73
2021/12/16 01:35:09;;;;;;;36.63;14.57;;;6.80;99.90;;;;;;5093550;28;20125;-73
2021/12/16 01:46:32;;;;;;;28.95;15.07;;;6.70;99.90;;;;;;5092993;28;20040;-73
2021/12/16 01:51:33;;;;;;;36.25;15.63;;;6.70;99.90;;;;;;5031365;28;20106;-73
2021/12/16 01:57:05;;;;;;;33.42;13.85;;;6.70;99.90;;;;;;5076100;28;20063;-73
2021/12/16 01:59:36;;;;;;;28.77;14.50;;;6.70;99.90;;;;;;5093285;28;20061;-73
2021/12/16 02:02:14;;;;;;;21.13;12.80;;;6.70;99.90;;;;;;5093106;28;20044;-73
2021/12/16 02:05:05;;;;;;;27.38;13.77;;;6.70;99.90;;;;;;5093556;28;20055;-73
2021/12/16 02:07:50;;;;;;;28.23;14.68;;;6.70;99.90;;;;;;5096690;28;20054;-73
2021/12/16 02:10:15;;;;;;;47.33;15.23;;;6.70;99.90;;;;;;5097014;28;20460;-73
2021/12/16 02:36:39;;;;;;;28.35;17.17;;;7.10;99.90;;;;;;5096404;28;20051;-73
2021/12/16 02:39:12;;;;;;;26.02;16.65;;;7.10;99.90;;;;;;5096649;28;20441;-73
2021/12/16 02:41:41;;;;;;;28.67;15.98;;;7.20;99.90;;;;;;5096663;28;20476;-74
2021/12/16 02:49:28;;;;;;;25.17;15.55;;;7.20;99.90;;;;;;5096492;28;20531;-74
2021/12/16 02:51:57;;;;;;;24.90;15.90;;;7.30;99.90;;;;;;5096297;28;20461;-74
2021/12/16 02:54:23;;;;;;;24.75;16.10;;;7.30;99.90;;;;;;5096167;28;20492;-74
2021/12/16 02:56:49;;;;;;;21.95;15.60;;;7.40;99.90;;;;;;5095897;28;20119;-74
2021/12/16 02:59:18;;;;;;;25.10;15.93;;;7.40;99.90;;;;;;5085737;28;20519;-74
2021/12/16 03:01:51;;;;;;;25.40;15.20;;;7.40;99.90;;;;;;5076204;28;20094;-73
2021/12/16 03:04:19;;;;;;;23.35;15.48;;;7.50;99.90;;;;;;5082374;28;20044;-74
2021/12/16 03:06:49;;;;;;;26.88;16.08;;;7.50;99.90;;;;;;5095850;28;20040;-75
2021/12/16 03:09:24;;;;;;;27.17;16.15;;;7.50;99.90;;;;;;5096401;28;20055;-73
2021/12/16 03:14:42;;;;;;;24.95;16.00;;;7.50;99.90;;;;;;5095956;28;20040;-74
2021/12/16 03:17:22;;;;;;;26.05;16.20;;;7.60;99.90;;;;;;5094732;28;20059;-73
2021/12/16 03:22:28;;;;;;;33.25;16.55;;;7.60;99.90;;;;;;5095459;28;20060;-74
2021/12/16 03:28:24;;;;;;;27.98;17.05;;;7.70;99.90;;;;;;5074092;28;20044;-73
2021/12/16 03:38:53;;;;;;;23.65;15.98;;;7.70;99.90;;;;;;5095626;28;20052;-73
2021/12/16 03:41:19;;;;;;;28.15;16.38;;;7.70;99.90;;;;;;5095557;28;20160;-74
2021/12/16 03:43:47;;;;;;;25.48;15.90;;;7.70;99.90;;;;;;5095091;28;20074;-75
2021/12/16 03:46:27;;;;;;;24.65;16.30;;;7.80;99.90;;;;;;5095174;28;20078;-74
2021/12/16 03:49:05;;;;;;;28.85;17.70;;;7.80;99.90;;;;;;5095401;28;20044;-74
2021/12/16 03:51:41;;;;;;;30.17;17.13;;;7.70;99.90;;;;;;5095398;28;20059;-74
2021/12/16 03:54:22;;;;;;;29.75;16.77;;;7.80;99.90;;;;;;5095169;28;20043;-74
2021/12/16 03:56:48;;;;;;;27.45;17.35;;;7.80;99.90;;;;;;5095000;28;20366;-74
2021/12/16 03:59:18;;;;;;;29.23;17.23;;;7.90;99.90;;;;;;5095181;28;20047;-73
2021/12/16 04:01:44;;;;;;;25.15;17.02;;;7.80;99.90;;;;;;5095079;28;20149;-74
2021/12/16 04:04:10;;;;;;;28.85;16.85;;;7.90;99.90;;;;;;5093954;28;20454;-74
2021/12/16 04:06:38;;;;;;;28.13;17.55;;;7.90;99.90;;;;;;5094799;28;20059;-74
2021/12/16 04:09:07;;;;;;;28.52;17.70;;;7.90;99.90;;;;;;5093980;28;20078;-74
2021/12/16 04:11:41;;;;;;;26.88;17.33;;;7.90;99.90;;;;;;5095044;28;20058;-74
2021/12/16 04:14:11;;;;;;;31.85;17.45;;;7.90;99.90;;;;;;5094829;28;20040;-74
2021/12/16 04:16:47;;;;;;;30.10;17.52;;;7.90;99.90;;;;;;5094555;28;20044;-74
2021/12/16 04:19:17;;;;;;;27.15;16.13;;;7.90;99.90;;;;;;5094892;28;20094;-73
2021/12/16 04:21:48;;;;;;;28.23;17.27;;;7.90;99.90;;;;;;5094411;28;20051;-73
2021/12/16 04:24:14;;;;;;;28.70;17.35;;;7.90;99.90;;;;;;5093261;28;20394;-73
2021/12/16 04:26:42;;;;;;;27.55;16.95;;;7.90;99.90;;;;;;5094177;28;20476;-74
2021/12/16 04:29:08;;;;;;;32.38;18.33;;;8.00;99.90;;;;;;5094685;28;20096;-74
2021/12/16 04:31:36;;;;;;;30.17;17.38;;;8.00;99.90;;;;;;5094471;28;20040;-74
2021/12/16 04:34:03;;;;;;;27.25;17.40;;;8.10;99.90;;;;;;5094166;28;20036;-74
2021/12/16 04:36:29;;;;;;;26.10;16.85;;;8.10;99.90;;;;;;5094358;28;20035;-74
2021/12/16 04:38:54;;;;;;;29.98;16.75;;;8.10;99.90;;;;;;5093437;28;20044;-74
2021/12/16 04:41:20;;;;;;;26.58;16.92;;;8.10;99.90;;;;;;5094342;28;20453;-73
2021/12/16 04:43:49;;;;;;;26.58;16.35;;;8.10;99.90;;;;;;5093601;28;20031;-74
2021/12/16 04:46:20;;;;;;;28.08;16.23;;;8.10;99.90;;;;;;5093808;28;20036;-73
2021/12/16 04:48:49;;;;;;;28.55;17.52;;;8.10;99.90;;;;;;5093961;28;20388;-75
2021/12/16 04:51:15;;;;;;;27.60;16.55;;;8.10;99.90;;;;;;5094318;28;20035;-74
2021/12/16 04:53:42;;;;;;;33.03;18.08;;;8.10;99.90;;;;;;5094076;28;20032;-74
2021/12/16 04:56:09;;;;;;;27.52;17.95;;;8.10;99.90;;;;;;5093771;28;20051;-73
2021/12/16 04:58:37;;;;;;;27.45;16.45;;;8.10;99.90;;;;;;5093852;28;20148;-73
2021/12/16 05:01:04;;;;;;;26.10;17.05;;;8.10;99.90;;;;;;5093829;28;20122;-74
2021/12/16 05:03:31;;;;;;;27.83;17.00;;;8.20;99.90;;;;;;5093426;28;20036;-74
2021/12/16 05:05:57;;;;;;;31.23;16.90;;;8.10;99.90;;;;;;5093191;28;20078;-76
2021/12/16 05:08:23;;;;;;;26.85;16.25;;;8.10;99.90;;;;;;5093944;28;20426;-74
2021/12/16 05:10:51;;;;;;;27.05;16.63;;;8.20;99.90;;;;;;5093906;28;20042;-74
2021/12/16 05:13:21;;;;;;;28.98;16.65;;;8.20;99.90;;;;;;5093931;28;20036;-74
2021/12/16 05:15:47;;;;;;;25.10;16.77;;;8.20;99.90;;;;;;5092837;28;20051;-74
2021/12/16 05:18:21;;;;;;;26.38;16.67;;;8.10;99.90;;;;;;5093978;28;20044;-74
2021/12/16 05:20:47;;;;;;;24.42;16.45;;;8.10;99.90;;;;;;5093533;28;20060;-74
2021/12/16 05:26:15;;;;;;;27.08;16.10;;;8.10;99.90;;;;;;5093318;28;20059;-74
2021/12/16 05:28:44;;;;;;;30.33;16.08;;;8.20;99.90;;;;;;5092620;28;20441;-73
2021/12/16 05:31:11;;;;;;;28.48;16.15;;;8.20;99.90;;;;;;5093555;28;20054;-73
2021/12/16 05:33:37;;;;;;;27.95;16.38;;;8.20;99.90;;;;;;5093172;28;20036;-74
2021/12/16 05:36:03;;;;;;;26.30;16.02;;;8.20;99.90;;;;;;5093227;28;20040;-73
2021/12/16 05:38:30;;;;;;;28.38;16.52;;;8.10;99.90;;;;;;5093751;28;20040;-74
2021/12/16 05:40:58;;;;;;;25.90;16.30;;;8.20;99.90;;;;;;5093105;28;20100;-75
2021/12/16 05:43:25;;;;;;;28.90;16.02;;;8.10;99.90;;;;;;5093669;28;20044;-74
2021/12/16 05:45:53;;;;;;;26.85;16.52;;;8.10;99.90;;;;;;5092490;28;20472;-74
2021/12/16 05:48:23;;;;;;;29.00;17.48;;;8.20;99.90;;;;;;5093672;28;20122;-74
2021/12/16 05:50:54;;;;;;;23.17;15.77;;;8.10;99.90;;;;;;5086725;28;20048;-76
2021/12/16 05:53:20;;;;;;;26.88;15.95;;;8.20;99.90;;;;;;5073542;28;20036;-66
2021/12/16 05:55:46;;;;;;;27.63;16.58;;;8.10;99.90;;;;;;5071685;28;20609;-66
2021/12/16 05:58:18;;;;;;;26.48;15.95;;;8.10;99.90;;;;;;5073448;28;20102;-66
2021/12/16 06:00:45;;;;;;;26.10;15.98;;;8.00;99.90;;;;;;5072491;28;20117;-66
2021/12/16 06:03:11;;;;;;;27.00;16.20;;;8.00;99.90;;;;;;5072597;28;20048;-66
2021/12/16 06:05:37;;;;;;;26.65;15.50;;;8.00;99.90;;;;;;5072625;28;20064;-66
2021/12/16 06:08:04;;;;;;;25.75;16.67;;;8.00;99.90;;;;;;5072544;28;20029;-66
2021/12/16 06:13:15;;;;;;;23.58;15.73;;;7.90;99.90;;;;;;5092382;28;20177;-66
2021/12/16 06:29:18;;;;;;;23.75;15.63;;;7.70;99.90;;;;;;5073249;28;20037;-66
2021/12/16 06:31:44;;;;;;;33.28;17.23;;;7.70;99.90;;;;;;5072750;28;20117;-67
2021/12/16 06:34:10;;;;;;;26.95;16.58;;;7.60;99.90;;;;;;5076794;28;20123;-67
2021/12/16 06:36:36;;;;;;;29.55;17.25;;;7.70;99.90;;;;;;5091826;28;20051;-66
2021/12/16 06:39:04;;;;;;;29.27;17.45;;;7.70;99.90;;;;;;5093262;28;20059;-67
2021/12/16 06:41:34;;;;;;;32.15;18.92;;;7.70;99.90;;;;;;5087274;28;20115;-67
2021/12/16 06:44:05;;;;;;;26.98;16.40;;;7.70;99.90;;;;;;5081417;28;20253;-67
2021/12/16 06:46:34;;;;;;;27.88;16.52;;;7.70;99.90;;;;;;5071623;28;20033;-66
2021/12/16 06:49:01;;;;;;;27.50;16.33;;;7.70;99.90;;;;;;5072223;28;20140;-67
2021/12/16 06:51:49;;;;;;;28.52;17.23;;;7.70;99.90;;;;;;5070640;28;20468;-67
2021/12/16 06:54:24;;;;;;;29.52;17.05;;;7.60;99.90;;;;;;5076538;28;20054;-68
2021/12/16 06:57:00;;;;;;;28.25;16.20;;;7.60;99.90;;;;;;5075839;28;20044;-66
2021/12/16 06:59:33;;;;;;;28.30;16.48;;;7.50;99.90;;;;;;5076289;28;20040;-67
2021/12/16 07:02:18;;;;;;;27.27;16.38;;;7.50;99.90;;;;;;5075655;28;20385;-67
2021/12/16 07:04:50;;;;;;;26.10;16.92;;;7.50;99.90;;;;;;5083961;28;20032;-68
2021/12/16 07:07:16;;;;;;;31.60;17.13;;;7.50;99.90;;;;;;5096060;28;20035;-67
2021/12/16 07:09:42;;;;;;;30.67;17.13;;;7.40;99.90;;;;;;5081305;28;20548;-67
2021/12/16 07:12:10;;;;;;;32.90;17.70;;;7.40;99.90;;;;;;5081360;28;20037;-66
2021/12/16 07:14:39;;;;;;;26.60;16.10;;;7.50;99.90;;;;;;5078510;28;20052;-65
2021/12/16 07:17:10;;;;;;;38.45;17.92;;;7.40;99.90;;;;;;5087818;28;20108;-67
2021/12/16 07:19:40;;;;;;;32.88;16.52;;;7.40;99.90;;;;;;5095871;28;20434;-65
2021/12/16 07:22:07;;;;;;;37.10;16.38;;;7.40;99.90;;;;;;5095680;28;20437;-68
2021/12/16 07:24:33;;;;;;;52.85;17.05;;;7.40;99.90;;;;;;5094334;28;20040;-68
2021/12/16 07:26:59;;;;;;;95.93;19.25;;;7.40;99.90;;;;;;5094796;28;20115;-69
2021/12/16 07:29:25;;;;;;;104.88;19.70;;;7.40;99.90;;;;;;5095933;28;20055;-67
2021/12/16 07:31:51;;;;;;;60.53;16.95;;;7.30;99.90;;;;;;5095701;28;20052;-67
2021/12/16 07:34:18;;;;;;;110.00;17.67;;;7.30;99.90;;;;;;5095716;28;20337;-66
2021/12/16 07:36:45;;;;;;;112.82;16.40;;;7.30;99.90;;;;;;5095195;28;20040;-66
2021/12/16 07:39:13;;;;;;;88.28;15.82;;;7.20;99.90;;;;;;5095810;28;20116;-67
2021/12/16 07:41:41;;;;;;;106.05;14.68;;;7.20;99.90;;;;;;5095228;28;20044;-66
2021/12/16 07:44:11;;;;;;;126.32;16.58;;;7.20;99.90;;;;;;5081931;28;20059;-66
2021/12/16 07:46:40;;;;;;;133.68;17.60;;;7.10;99.90;;;;;;5095323;28;20043;-66
2021/12/16 07:49:09;;;;;;;63.38;13.40;;;7.00;99.90;;;;;;5095366;28;20042;-66
2021/12/16 07:51:35;;;;;;;58.25;13.27;;;7.00;99.90;;;;;;5095429;28;20039;-66
2021/12/16 07:54:02;;;;;;;83.53;14.68;;;7.00;99.90;;;;;;5095265;28;20052;-66
2021/12/16 07:56:27;;;;;;;65.22;14.07;;;6.90;99.90;;;;;;5095261;28;20032;-67
2021/12/16 07:58:53;;;;;;;58.20;14.05;;;6.90;99.90;;;;;;5095288;28;20368;-67
2021/12/16 08:01:19;;;;;;;72.57;14.20;;;6.80;99.90;;;;;;5095142;28;20441;-67
2021/12/16 08:03:45;;;;;;;110.65;16.58;;;6.80;99.90;;;;;;5094334;28;20105;-67
2021/12/16 08:06:21;;;;;;;67.00;14.80;;;6.80;99.90;;;;;;5094756;28;20403;-66
2021/12/16 08:08:49;;;;;;;54.80;12.40;;;6.80;99.90;;;;;;5094188;28;20123;-66
2021/12/16 08:11:15;;;;;;;79.82;14.48;;;6.70;99.90;;;;;;5095040;28;20035;-67
2021/12/16 08:13:40;;;;;;;57.60;13.55;;;6.70;99.90;;;;;;5095104;28;20040;-66
2021/12/16 08:16:07;;;;;;;43.95;12.35;;;6.70;99.90;;;;;;5094698;28;20082;-66
2021/12/16 08:18:33;;;;;;;62.80;14.65;;;6.80;99.90;;;;;;5095000;28;20054;-66
2021/12/16 08:20:59;;;;;;;39.80;12.98;;;6.70;99.90;;;;;;5094729;28;20117;-66
2021/12/16 08:23:25;;;;;;;35.85;12.82;;;6.70;99.90;;;;;;5094639;28;20047;-67
2021/12/16 08:25:51;;;;;;;39.15;13.07;;;6.70;99.90;;;;;;5094114;28;20120;-67
2021/12/16 08:28:17;;;;;;;51.10;13.07;;;6.80;99.90;;;;;;5094792;28;20036;-67
2021/12/16 08:30:46;;;;;;;96.15;14.95;;;6.80;99.90;;;;;;5094791;28;20028;-66
2021/12/16 08:33:14;;;;;;;41.22;12.05;;;6.80;99.90;;;;;;5094750;28;20084;-66
2021/12/16 08:35:43;;;;;;;37.38;12.93;;;6.80;99.90;;;;;;5094233;28;20044;-66
2021/12/16 08:38:10;;;;;;;31.05;11.73;;;6.80;99.90;;;;;;5093435;28;20055;-66
2021/12/16 08:40:39;;;;;;;24.23;12.15;;;6.80;99.90;;;;;;5074357;28;20041;-66
2021/12/16 08:43:07;;;;;;;37.80;11.30;;;6.80;99.90;;;;;;5073988;28;20355;-64
2021/12/16 08:45:33;;;;;;;38.75;11.27;;;6.90;99.90;;;;;;5056882;28;20059;-64
2021/12/16 08:48:01;;;;;;;49.22;11.25;;;6.90;99.90;;;;;;5075811;28;20028;-66
2021/12/16 08:50:29;;;;;;;108.88;14.15;;;6.80;99.90;;;;;;5084795;28;20035;-67
2021/12/16 08:52:58;;;;;;;33.67;10.73;;;6.70;99.90;;;;;;5076274;28;20040;-67
2021/12/16 08:55:24;;;;;;;64.72;11.93;;;6.70;99.90;;;;;;5086651;28;20127;-68
2021/12/16 08:57:50;;;;;;;39.35;11.70;;;6.70;99.90;;;;;;5092577;28;20143;-67
2021/12/16 09:00:21;;;;;;;40.58;11.07;;;6.70;99.90;;;;;;5092509;28;20036;-67
2021/12/16 09:02:48;;;;;;;36.17;11.23;;;6.70;99.90;;;;;;5092383;28;20354;-68
2021/12/16 09:05:14;;;;;;;45.03;12.20;;;6.80;99.90;;;;;;5085640;28;20566;-67
2021/12/16 09:07:40;;;;;;;84.18;13.32;;;6.80;99.90;;;;;;5092784;28;20040;-67
2021/12/16 09:10:10;;;;;;;93.53;13.50;;;6.80;99.90;;;;;;5093002;28;20085;-68
2021/12/16 09:12:49;;;;;;;55.72;12.52;;;6.90;99.90;;;;;;5093752;28;20093;-67
2021/12/16 09:15:15;;;;;;;48.72;12.27;;;6.90;99.90;;;;;;5092647;28;20132;-67
2021/12/16 09:17:42;;;;;;;49.72;12.23;;;6.90;99.90;;;;;;5093917;28;20491;-67
2021/12/16 09:20:08;;;;;;;43.85;12.50;;;6.90;99.90;;;;;;5093612;28;20437;-67
2021/12/16 09:22:35;;;;;;;67.95;13.00;;;7.00;99.90;;;;;;5093978;28;20036;-67
2021/12/16 09:25:01;;;;;;;48.55;11.90;;;7.00;99.90;;;;;;5093520;28;20067;-67
2021/12/16 09:27:27;;;;;;;61.08;12.55;;;7.10;99.90;;;;;;5093763;28;20036;-68
2021/12/16 09:29:53;;;;;;;41.38;12.32;;;7.10;99.90;;;;;;5092595;28;20055;-67
2021/12/16 09:32:22;;;;;;;95.18;13.48;;;7.10;99.90;;;;;;5075619;28;20430;-67
2021/12/16 09:34:48;;;;;;;90.15;13.13;;;7.10;99.90;;;;;;5092437;28;20036;-66
2021/12/16 09:37:13;;;;;;;70.80;13.57;;;7.10;99.90;;;;;;5082472;28;20040;-66
2021/12/16 09:39:40;;;;;;;53.55;12.50;;;7.10;99.90;;;;;;5073681;28;20402;-66
2021/12/16 09:42:07;;;;;;;79.22;13.90;;;7.20;99.90;;;;;;5073491;28;20042;-67
2021/12/16 09:44:33;;;;;;;143.13;16.13;;;7.20;99.90;;;;;;5082740;28;20369;-67
2021/12/16 09:47:01;;;;;;;54.70;12.77;;;7.30;99.90;;;;;;5093353;28;20031;-67
2021/12/16 09:49:27;;;;;;;160.43;19.00;;;7.30;99.90;;;;;;5092667;28;20043;-67
2021/12/16 09:51:55;;;;;;;83.78;15.02;;;7.30;99.90;;;;;;5093593;28;20119;-67
2021/12/16 09:54:25;;;;;;;72.70;13.43;;;7.30;99.90;;;;;;5087149;28;20801;-67
2021/12/16 09:56:52;;;;;;;110.80;13.68;;;7.40;99.90;;;;;;5078682;28;20056;-66
2021/12/16 09:59:20;;;;;;;118.75;15.40;;;7.40;99.90;;;;;;5072323;28;20044;-66
2021/12/16 10:01:49;;;;;;;64.03;13.90;;;7.40;99.90;;;;;;5073168;28;20045;-67
2021/12/16 10:04:19;;;;;;;99.28;12.88;;;7.40;99.90;;;;;;5075483;28;20119;-65
2021/12/16 10:06:48;;;;;;;117.90;14.82;;;7.40;99.90;;;;;;5085788;28;20109;-67
2021/12/16 10:09:14;;;;;;;158.50;15.80;;;7.40;99.90;;;;;;5085338;28;20461;-67
2021/12/16 10:11:43;;;;;;;108.47;12.95;;;7.50;99.90;;;;;;5093457;28;20039;-67
2021/12/16 10:19:27;;;;;;;129.63;13.05;;;7.60;99.90;;;;;;5093439;28;20040;-67
2021/12/16 10:21:55;;;;;;;69.45;12.35;;;7.70;99.90;;;;;;5092861;28;20139;-67
2021/12/16 10:24:23;;;;;;;195.63;16.48;;;7.70;99.90;;;;;;5092997;28;20058;-67
2021/12/16 10:27:04;;;;;;;130.82;14.45;;;7.70;99.90;;;;;;5094886;28;20133;-67
2021/12/16 10:29:38;;;;;;;71.38;12.52;;;7.70;99.90;;;;;;5097000;28;20480;-67
2021/12/16 10:32:06;;;;;;;201.07;15.90;;;7.80;99.90;;;;;;5096680;28;20350;-67
2021/12/16 10:34:32;;;;;;;180.55;14.70;;;7.80;99.90;;;;;;5096798;28;20042;-67
2021/12/16 10:36:59;;;;;;;206.70;15.43;;;7.80;99.90;;;;;;5076906;28;20033;-67
2021/12/16 10:39:26;;;;;;;148.77;13.20;;;7.80;99.90;;;;;;5076604;28;20044;-68
2021/12/16 10:41:53;;;;;;;186.50;15.25;;;7.90;99.90;;;;;;5076492;28;20044;-67
2021/12/16 10:44:27;;;;;;;94.63;11.50;;;7.80;99.90;;;;;;5083635;28;20040;-68
2021/12/16 10:47:07;;;;;;;93.40;12.38;;;7.70;99.90;;;;;;5077752;28;20036;-68
2021/12/16 10:49:36;;;;;;;118.45;12.80;;;7.80;99.90;;;;;;5076555;28;20105;-67
2021/12/16 10:52:07;;;;;;;82.78;11.75;;;7.80;99.90;;;;;;5076360;28;20032;-66
2021/12/16 10:54:41;;;;;;;105.80;13.27;;;7.90;99.90;;;;;;5080664;28;20361;-66
2021/12/16 10:57:13;;;;;;;47.25;12.57;;;7.90;99.90;;;;;;5094528;28;20043;-67
2021/12/16 10:59:45;;;;;;;109.75;15.05;;;8.00;99.90;;;;;;5079986;28;20139;-67
2021/12/16 11:02:13;;;;;;;62.88;14.18;;;7.90;99.90;;;;;;5074901;28;20098;-67
2021/12/16 11:04:50;;;;;;;96.65;14.02;;;8.10;99.90;;;;;;5081602;28;20036;-67
2021/12/16 11:07:25;;;;;;;80.03;12.98;;;8.10;99.90;;;;;;5096147;28;20051;-67
2021/12/16 11:09:59;;;;;;;82.10;12.27;;;8.10;99.90;;;;;;5092590;28;20048;-67
2021/12/16 11:12:39;;;;;;;93.22;14.27;;;8.20;99.90;;;;;;5075953;28;20029;-66
2021/12/16 11:15:13;;;;;;;87.70;13.23;;;8.10;99.90;;;;;;5084774;28;20078;-67
2021/12/16 11:17:42;;;;;;;73.68;12.57;;;8.20;99.90;;;;;;5079119;28;20119;-67
2021/12/16 11:20:26;;;;;;;133.75;15.00;;;8.20;99.90;;;;;;5075751;28;20055;-66
2021/12/16 11:23:04;;;;;;;105.00;13.55;;;8.10;99.90;;;;;;5075289;28;20358;-67
2021/12/16 11:25:38;;;;;;;178.15;15.85;;;8.20;99.90;;;;;;5087497;28;20333;-66
2021/12/16 11:28:15;;;;;;;126.05;13.88;;;8.20;99.90;;;;;;5095935;28;20032;-66
2021/12/16 11:30:52;;;;;;;162.10;16.25;;;8.20;99.90;;;;;;5095789;28;20046;-67
2021/12/16 11:33:26;;;;;;;112.85;15.07;;;8.20;99.90;;;;;;5095854;28;20039;-67
2021/12/16 11:35:56;;;;;;;172.73;19.63;;;8.20;99.90;;;;;;5095342;28;20055;-67
2021/12/16 11:38:44;;;;;;;86.20;14.60;;;8.20;99.90;;;;;;5094984;28;20482;-67
2021/12/16 11:41:21;;;;;;;143.20;17.02;;;8.30;99.90;;;;;;5095961;28;20044;-68
2021/12/16 11:43:50;;;;;;;48.15;14.82;;;8.40;99.90;;;;;;5095491;28;20043;-67
2021/12/16 11:46:27;;;;;;;67.35;14.15;;;8.50;99.90;;;;;;5094640;28;20541;-67
2021/12/16 11:48:55;;;;;;;81.03;14.98;;;8.50;99.90;;;;;;5095453;28;20058;-67
2021/12/16 11:51:43;;;;;;;103.65;16.00;;;8.40;99.90;;;;;;5095683;28;20377;-67
2021/12/16 11:54:19;;;;;;;105.05;16.95;;;8.40;99.90;;;;;;5095308;28;20063;-68
2021/12/16 11:57:09;;;;;;;130.77;16.55;;;8.40;99.90;;;;;;5095169;28;20047;-67
2021/12/16 11:59:58;;;;;;;223.35;19.75;;;8.40;99.90;;;;;;5094820;28;20345;-66
2021/12/16 12:02:35;;;;;;;90.38;15.18;;;8.40;99.90;;;;;;5056185;28;20048;-67
2021/12/16 12:05:21;;;;;;;87.80;14.68;;;8.40;99.90;;;;;;5093496;28;20048;-67
2021/12/16 12:07:51;;;;;;;96.40;15.38;;;8.50;99.90;;;;;;5095184;28;20035;-67
2021/12/16 12:10:53;;;;;;;45.08;14.52;;;8.60;99.90;;;;;;5094732;28;20525;-67
2021/12/16 12:13:25;;;;;;;69.30;13.82;;;8.60;99.90;;;;;;5095327;28;20119;-66
2021/12/16 12:16:17;;;;;;;95.90;14.85;;;8.60;99.90;;;;;;5094343;28;20423;-67
2021/12/16 12:19:13;;;;;;;94.38;16.08;;;8.50;99.90;;;;;;5094822;28;20043;-67
2021/12/16 12:21:50;;;;;;;85.10;16.08;;;8.50;99.90;;;;;;5094561;28;20468;-67
2021/12/16 12:24:25;;;;;;;62.47;15.18;;;8.40;99.90;;;;;;5094588;28;20081;-67
2021/12/16 12:26:57;;;;;;;73.43;17.13;;;8.40;99.90;;;;;;5081312;28;20482;-67
2021/12/16 12:29:30;;;;;;;79.13;15.32;;;8.40;99.90;;;;;;5074518;28;20036;-66
2021/12/16 12:32:00;;;;;;;60.53;15.95;;;8.40;99.90;;;;;;5074424;28;20419;-67
2021/12/16 12:34:26;;;;;;;42.08;15.25;;;8.40;99.90;;;;;;5077226;28;20032;-67
2021/12/16 12:36:55;;;;;;;71.32;14.55;;;8.50;99.90;;;;;;5094415;28;20051;-67
2021/12/16 12:39:24;;;;;;;46.60;13.60;;;8.50;99.90;;;;;;5094736;28;20049;-67
2021/12/16 12:41:51;;;;;;;82.25;14.48;;;8.50;99.90;;;;;;5094532;28;20091;-66
2021/12/16 12:44:18;;;;;;;54.13;15.02;;;8.50;99.90;;;;;;5094355;28;20039;-67
2021/12/16 12:46:45;;;;;;;92.75;16.50;;;8.50;99.90;;;;;;5093801;28;20127;-66
2021/12/16 12:49:15;;;;;;;76.47;14.57;;;8.50;99.90;;;;;;5094445;28;20032;-66
2021/12/16 12:51:46;;;;;;;75.10;13.60;;;8.40;99.90;;;;;;5094342;28;20036;-67
2021/12/16 12:54:24;;;;;;;56.17;12.55;;;8.50;99.90;;;;;;5094107;28;20101;-67
2021/12/16 12:56:53;;;;;;;110.20;16.92;;;8.50;99.90;;;;;;5093594;28;20410;-67
2021/12/16 12:59:20;;;;;;;47.38;12.02;;;8.50;99.90;;;;;;5083209;28;20036;-66
2021/12/16 13:01:55;;;;;;;132.90;18.40;;;8.50;99.90;;;;;;5073814;28;20116;-67
2021/12/16 13:04:32;;;;;;;75.93;13.25;;;8.60;99.90;;;;;;5075994;28;20052;-67
2021/12/16 13:07:06;;;;;;;70.50;15.93;;;8.60;99.90;;;;;;5086952;28;20062;-67
2021/12/16 13:09:53;;;;;;;51.78;14.15;;;8.60;99.90;;;;;;5081152;28;20044;-67
2021/12/16 13:12:35;;;;;;;92.28;19.70;;;8.60;99.90;;;;;;5073819;28;20146;-67
2021/12/16 13:15:19;;;;;;;68.18;13.48;;;8.60;99.90;;;;;;5080507;28;20067;-67
2021/12/16 13:24:32;;;;;;;57.42;13.68;;;8.60;99.90;;;;;;5093866;28;20479;-67
2021/12/16 13:26:48;;;;;;;85.35;15.77;;;8.70;99.90;;;;;;5070687;28;20067;-66
2021/12/16 13:29:31;;;;;;;60.80;24.35;;;8.70;99.90;;;;;;5072784;28;20059;-67
2021/12/16 13:32:09;;;;;;;59.28;13.95;;;8.70;99.90;;;;;;5072567;28;20120;-66
2021/12/16 13:34:59;;;;;;;63.78;13.07;;;8.70;99.90;;;;;;5075407;28;20075;-67
2021/12/16 13:37:34;;;;;;;46.13;13.07;;;8.70;99.90;;;;;;5092308;28;20111;-66
2021/12/16 13:40:08;;;;;;;78.45;13.07;;;8.70;99.90;;;;;;5092052;28;20050;-67
2021/12/16 13:42:43;;;;;;;;;;;8.70;99.90;;;;;;5091771;28;20051;-67
2021/12/16 13:45:21;;;;;;;49.38;16.23;;;8.70;99.90;;;;;;5091682;28;19920;-67
2021/12/16 13:48:06;;;;;;;58.33;13.30;;;8.70;99.90;;;;;;5092799;28;20040;-67
2021/12/16 14:05:29;;;;;;;41.15;11.18;;;8.70;99.90;;;;;;5084214;28;20080;-66
2021/12/16 14:08:01;;;;;;;62.60;12.85;;;8.60;99.90;;;;;;5096346;28;20082;-67
2021/12/16 14:10:50;;;;;;;66.88;12.55;;;8.60;99.90;;;;;;5097240;28;20457;-67
2021/12/16 14:34:21;;;;;;;60.05;11.50;;;8.40;99.90;;;;;;5076942;28;20041;-66
2021/12/16 14:49:35;;;;;;;78.90;13.63;;;8.40;99.90;;;;;;5076524;28;20055;-66
2021/12/16 14:52:02;;;;;;;119.95;15.15;;;8.40;99.90;;;;;;5076231;28;20036;-66
2021/12/16 14:54:28;;;;;;;57.10;13.57;;;8.40;99.90;;;;;;5077863;28;20062;-66
2021/12/16 14:56:59;;;;;;;88.03;14.30;;;8.40;99.90;;;;;;5096033;28;20043;-66
2021/12/16 14:59:27;;;;;;;62.78;13.13;;;8.30;99.90;;;;;;5096524;28;20047;-66
2021/12/16 15:01:54;;;;;;;62.55;13.68;;;8.40;99.90;;;;;;5084702;28;20040;-67
2021/12/16 15:04:24;;;;;;;71.05;13.80;;;8.30;99.90;;;;;;5077189;28;20111;-67
2021/12/16 15:07:00;;;;;;;53.97;12.00;;;8.30;99.90;;;;;;5096240;28;20048;-69
2021/12/16 15:09:31;;;;;;;67.32;12.90;;;8.20;99.90;;;;;;5096249;28;20462;-68
2021/12/16 15:12:10;;;;;;;69.85;12.02;;;8.20;99.90;;;;;;5096035;28;20107;-67
2021/12/16 15:17:37;;;;;;;35.17;9.65;;;8.10;99.90;;;;;;5094638;28;20044;-68
2021/12/16 15:43:09;;;;;;;89.38;13.07;;;8.00;99.90;;;;;;5095666;28;20040;-66
2021/12/16 15:45:09;;;;;;;;;;;8.00;99.90;;;;;;5076766;28;20113;-66
2021/12/16 15:47:46;;;;;;;98.88;14.35;;;8.00;99.90;;;;;;5095361;28;19966;-67
2021/12/16 15:50:15;;;;;;;88.70;13.35;;;7.90;99.90;;;;;;5095671;28;20051;-68
2021/12/16 15:52:44;;;;;;;69.68;14.25;;;7.90;99.90;;;;;;5095457;28;20048;-67
2021/12/16 15:55:20;;;;;;;62.40;14.02;;;7.90;99.90;;;;;;5094922;28;20036;-68
2021/12/16 15:57:46;;;;;;;93.05;15.13;;;8.00;99.90;;;;;;5095394;28;20032;-67
2021/12/16 16:00:17;;;;;;;98.45;16.75;;;8.00;99.90;;;;;;5077011;28;20488;-68
2021/12/16 16:02:43;;;;;;;76.60;16.13;;;7.90;99.90;;;;;;5074987;28;20044;-67
2021/12/16 16:05:09;;;;;;;49.42;13.80;;;7.90;99.90;;;;;;5081953;28;20101;-67
2021/12/16 16:07:38;;;;;;;62.22;14.65;;;8.00;99.90;;;;;;5095310;28;20093;-67
2021/12/16 16:10:05;;;;;;;58.40;14.20;;;8.00;99.90;;;;;;5095411;28;20131;-67
2021/12/16 16:12:33;;;;;;;38.47;14.18;;;8.00;99.90;;;;;;5095015;28;20380;-67
2021/12/16 16:15:16;;;;;;;48.72;13.15;;;8.00;99.90;;;;;;5094625;28;20044;-67
2021/12/16 16:17:54;;;;;;;56.45;13.70;;;8.10;99.90;;;;;;5095079;28;20058;-67
2021/12/16 16:20:22;;;;;;;80.60;13.85;;;8.10;99.90;;;;;;5094687;28;20054;-67
2021/12/16 16:22:48;;;;;;;79.88;15.10;;;8.10;99.90;;;;;;5095019;28;20111;-67
2021/12/16 16:25:14;;;;;;;72.55;14.60;;;8.10;99.90;;;;;;5093855;28;20424;-67
2021/12/16 16:27:40;;;;;;;102.22;16.13;;;8.00;99.90;;;;;;5094926;28;20046;-67
2021/12/16 16:30:07;;;;;;;79.65;13.35;;;8.10;99.90;;;;;;5094928;28;20115;-67
2021/12/16 16:33:07;;;;;;;74.60;14.10;;;8.10;99.90;;;;;;5093658;28;20031;-67
2021/12/16 16:35:36;;;;;;;72.50;13.75;;;8.10;99.90;;;;;;5093722;28;20424;-68
2021/12/16 16:38:21;;;;;;;70.75;13.40;;;8.10;99.90;;;;;;5094334;28;20059;-68
2021/12/16 16:40:50;;;;;;;52.00;12.98;;;8.00;99.90;;;;;;5094778;28;20075;-69
2021/12/16 16:43:38;;;;;;;42.30;13.35;;;8.10;99.90;;;;;;5094537;28;20040;-68
2021/12/16 16:46:13;;;;;;;48.35;13.07;;;8.20;99.90;;;;;;5088109;28;20435;-68
2021/12/16 16:51:35;;;;;;;55.25;15.18;;;8.20;99.90;;;;;;5094656;28;20036;-68